Time;durP1;ratioP1;P1;durP2;ratioP2;P2;SDS_P1;SDS_P2;PMS_P1;PMS_P2;Temp;Humidity;BMP_temperature;BMP_pressure;BME280_temperature;BME280_humidity;BME280_pressure;Samples;Min_cycle;Max_cycle;Signal;HPM_P1;HPM_P2
2020/12/01 00:00:36;;;;;;;15.13;7.53;;;-2.20;94.10;;;;;;5031159;28;20278;-73
2020/12/01 00:03:02;;;;;;;19.07;6.97;;;-2.20;94.10;;;;;;5031833;28;20175;-73
2020/12/01 00:05:28;;;;;;;14.97;8.13;;;-2.20;94.10;;;;;;5046489;28;20194;-73
2020/12/01 00:07:54;;;;;;;7.47;6.37;;;-2.20;94.30;;;;;;5047036;28;20178;-73
2020/12/01 00:10:21;;;;;;;13.10;8.27;;;-2.20;94.50;;;;;;5041738;28;20210;-73
2020/12/01 00:12:48;;;;;;;19.70;8.27;;;-2.20;94.70;;;;;;5048143;28;20260;-72
2020/12/01 00:15:17;;;;;;;13.97;7.57;;;-2.20;94.70;;;;;;5030805;28;20588;-72
2020/12/01 00:17:44;;;;;;;23.53;8.50;;;-2.20;94.70;;;;;;5031261;28;20562;-73
2020/12/01 00:20:10;;;;;;;13.77;7.23;;;-2.10;94.90;;;;;;5047930;28;20264;-73
2020/12/01 00:22:36;;;;;;;11.70;7.47;;;-2.10;94.80;;;;;;5047944;28;20562;-72
2020/12/01 00:25:03;;;;;;;22.40;9.80;;;-2.10;94.80;;;;;;5044330;28;20218;-73
2020/12/01 00:27:29;;;;;;;15.50;7.30;;;-2.10;94.80;;;;;;5046216;28;20278;-73
2020/12/01 00:29:55;;;;;;;16.83;7.83;;;-2.10;94.80;;;;;;5046208;28;20328;-72
2020/12/01 00:32:20;;;;;;;12.60;6.77;;;-2.00;94.70;;;;;;5049096;28;20267;-73
2020/12/01 00:34:46;;;;;;;14.77;8.37;;;-2.10;94.60;;;;;;5048643;28;20186;-72
2020/12/01 00:37:12;;;;;;;13.70;7.43;;;-2.00;94.50;;;;;;5047113;28;20182;-73
2020/12/01 00:39:37;;;;;;;14.53;6.70;;;-2.00;94.20;;;;;;5034135;28;20213;-73
2020/12/01 00:42:03;;;;;;;12.53;6.93;;;-2.00;94.00;;;;;;5030716;28;20641;-73
2020/12/01 00:44:29;;;;;;;16.53;9.20;;;-2.00;94.00;;;;;;5035528;28;20516;-73
2020/12/01 00:46:55;;;;;;;21.83;8.63;;;-2.00;93.90;;;;;;5047170;28;20607;-73
2020/12/01 00:49:20;;;;;;;13.37;8.80;;;-2.00;93.80;;;;;;5042069;28;20700;-72
2020/12/01 00:51:49;;;;;;;16.43;7.80;;;-2.00;93.90;;;;;;5040121;28;20201;-72
2020/12/01 00:54:15;;;;;;;16.03;8.27;;;-2.00;93.70;;;;;;5029462;28;20272;-72
2020/12/01 00:56:41;;;;;;;16.43;8.93;;;-2.10;93.50;;;;;;5028593;28;20222;-72
2020/12/01 00:59:07;;;;;;;15.13;8.07;;;-2.10;93.60;;;;;;5034223;28;20601;-73
2020/12/01 01:01:33;;;;;;;13.07;7.87;;;-2.10;93.60;;;;;;5046475;28;20253;-73
2020/12/01 01:03:59;;;;;;;20.00;8.20;;;-2.20;93.70;;;;;;5046849;28;20191;-72
2020/12/01 01:06:25;;;;;;;13.53;7.17;;;-2.20;93.60;;;;;;5046782;28;20678;-72
2020/12/01 01:08:51;;;;;;;19.10;8.83;;;-2.20;93.60;;;;;;5040000;28;20249;-72
2020/12/01 01:11:17;;;;;;;10.43;7.37;;;-2.20;93.60;;;;;;5049712;28;20202;-73
2020/12/01 01:13:43;;;;;;;16.17;7.07;;;-2.20;93.60;;;;;;5048057;28;20537;-72
2020/12/01 01:16:08;;;;;;;13.60;7.80;;;-2.20;93.60;;;;;;5039868;28;20535;-72
2020/12/01 01:18:34;;;;;;;15.33;7.67;;;-2.30;93.70;;;;;;5030541;28;20786;-73
2020/12/01 01:21:00;;;;;;;14.23;8.47;;;-2.30;93.70;;;;;;5048434;28;20279;-72
2020/12/01 01:23:26;;;;;;;13.57;7.90;;;-2.30;93.60;;;;;;5038246;28;20182;-72
2020/12/01 01:25:52;;;;;;;12.87;7.00;;;-2.40;93.60;;;;;;5038513;28;20572;-73
2020/12/01 01:28:18;;;;;;;16.60;8.60;;;-2.40;93.70;;;;;;5032657;28;20209;-72
2020/12/01 01:30:44;;;;;;;12.67;6.93;;;-2.40;93.70;;;;;;5034506;28;20230;-73
2020/12/01 01:33:10;;;;;;;15.23;7.43;;;-2.40;93.70;;;;;;5029362;28;20605;-73
2020/12/01 01:35:37;;;;;;;16.10;8.43;;;-2.40;93.80;;;;;;5039361;28;20211;-73
2020/12/01 01:38:08;;;;;;;13.40;8.80;;;-2.40;94.20;;;;;;5042736;28;20183;-73
2020/12/01 01:40:34;;;;;;;17.03;9.10;;;-2.40;94.40;;;;;;5038986;28;20280;-73
2020/12/01 01:43:01;;;;;;;17.10;8.97;;;-2.30;94.90;;;;;;5048606;28;20195;-73
2020/12/01 01:45:46;;;;;;;17.37;7.40;;;-2.30;95.00;;;;;;5042440;28;20545;-73
2020/12/01 01:48:25;;;;;;;13.33;6.23;;;-2.20;95.00;;;;;;5046526;28;20178;-73
2020/12/01 01:51:19;;;;;;;15.00;6.73;;;-2.20;94.90;;;;;;5036867;28;20196;-73
2020/12/01 01:53:52;;;;;;;11.97;5.57;;;-2.20;94.60;;;;;;5032018;28;20370;-73
2020/12/01 01:56:24;;;;;;;8.27;5.67;;;-2.20;94.50;;;;;;5030804;28;20190;-73
2020/12/01 01:58:51;;;;;;;10.63;7.63;;;-2.20;94.20;;;;;;5038124;28;20175;-73
2020/12/01 02:01:21;;;;;;;14.83;7.20;;;-2.20;93.90;;;;;;5047594;28;20233;-73
2020/12/01 02:03:53;;;;;;;13.63;7.73;;;-2.20;93.70;;;;;;5034415;28;20247;-73
2020/12/01 02:06:18;;;;;;;15.30;7.27;;;-2.30;93.40;;;;;;5029351;28;20200;-73
2020/12/01 02:08:50;;;;;;;12.07;6.87;;;-2.30;93.40;;;;;;5034084;28;20244;-73
2020/12/01 02:11:17;;;;;;;10.30;6.40;;;-2.40;93.30;;;;;;5030229;28;20542;-73
2020/12/01 02:14:11;;;;;;;11.80;7.33;;;-2.40;93.20;;;;;;5036916;28;20208;-72
2020/12/01 02:16:45;;;;;;;15.60;8.73;;;-2.40;93.20;;;;;;5021445;28;20211;-73
2020/12/01 02:19:18;;;;;;;13.10;7.43;;;-2.50;93.30;;;;;;5026363;28;20282;-73
2020/12/01 02:21:44;;;;;;;14.47;7.63;;;-2.50;93.40;;;;;;5025636;28;20222;-72
2020/12/01 02:24:19;;;;;;;13.93;7.27;;;-2.50;93.60;;;;;;5026960;28;20187;-72
2020/12/01 02:26:51;;;;;;;12.43;7.17;;;-2.50;93.80;;;;;;5024710;28;20215;-72
2020/12/01 02:29:20;;;;;;;15.20;8.67;;;-2.50;94.00;;;;;;5008850;28;20223;-72
2020/12/01 02:31:46;;;;;;;13.27;8.17;;;-2.50;94.00;;;;;;5008521;28;20217;-72
2020/12/01 02:34:15;;;;;;;17.00;8.10;;;-2.50;94.10;;;;;;5023945;28;20189;-73
2020/12/01 02:36:41;;;;;;;13.10;7.67;;;-2.50;94.00;;;;;;5024851;28;20203;-73
2020/12/01 02:39:09;;;;;;;21.10;9.20;;;-2.50;93.90;;;;;;5008255;28;20236;-73
2020/12/01 02:41:35;;;;;;;12.87;7.83;;;-2.50;93.90;;;;;;5024891;28;20309;-72
2020/12/01 02:44:02;;;;;;;15.13;8.07;;;-2.50;93.70;;;;;;5025181;28;20435;-73
2020/12/01 02:46:34;;;;;;;14.67;7.50;;;-2.50;93.50;;;;;;5025356;28;20228;-72
2020/12/01 02:49:00;;;;;;;15.23;9.80;;;-2.60;93.50;;;;;;5041824;28;20633;-72
2020/12/01 02:51:26;;;;;;;12.87;8.57;;;-2.60;93.30;;;;;;5024156;28;20221;-72
2020/12/01 02:53:52;;;;;;;15.47;7.77;;;-2.60;93.10;;;;;;5041528;28;20613;-72
2020/12/01 02:56:17;;;;;;;16.63;8.13;;;-2.70;92.90;;;;;;5045626;28;20204;-73
2020/12/01 02:58:43;;;;;;;16.07;8.20;;;-2.70;92.90;;;;;;5048004;28;20182;-73
2020/12/01 03:01:09;;;;;;;19.00;8.97;;;-2.80;92.90;;;;;;5048106;28;20516;-72
2020/12/01 03:03:34;;;;;;;15.40;8.60;;;-2.90;93.10;;;;;;5047367;28;20211;-73
2020/12/01 03:06:05;;;;;;;18.63;8.57;;;-2.90;92.90;;;;;;5034089;28;20207;-73
2020/12/01 03:08:31;;;;;;;13.77;7.80;;;-2.90;92.90;;;;;;5070333;28;20178;-73
2020/12/01 03:10:56;;;;;;;20.07;9.90;;;-3.00;92.90;;;;;;5048180;28;20278;-73
2020/12/01 03:13:22;;;;;;;19.07;9.50;;;-3.00;93.10;;;;;;5044523;28;20195;-72
2020/12/01 03:15:47;;;;;;;14.57;9.37;;;-3.10;93.10;;;;;;5046582;28;20222;-72
2020/12/01 03:18:13;;;;;;;22.13;10.17;;;-3.10;93.10;;;;;;5045688;28;20449;-72
2020/12/01 03:20:39;;;;;;;14.67;9.07;;;-3.10;93.10;;;;;;5043992;28;20634;-73
2020/12/01 03:23:05;;;;;;;15.27;9.43;;;-3.20;93.10;;;;;;5026497;28;20194;-72
2020/12/01 03:25:30;;;;;;;27.10;12.20;;;-3.20;93.10;;;;;;5029884;28;20229;-72
2020/12/01 03:27:56;;;;;;;28.97;12.37;;;-3.20;92.90;;;;;;5028053;28;20297;-71
2020/12/01 03:30:22;;;;;;;27.03;14.13;;;-3.30;92.70;;;;;;5027707;28;20214;-72
2020/12/01 03:32:47;;;;;;;33.03;14.27;;;-3.30;92.50;;;;;;5040785;28;20593;-72
2020/12/01 03:35:13;;;;;;;27.33;13.53;;;-3.40;92.20;;;;;;5046793;28;20198;-71
2020/12/01 03:37:39;;;;;;;31.97;15.30;;;-3.50;92.00;;;;;;5027827;28;20190;-72
2020/12/01 03:40:05;;;;;;;27.57;14.40;;;-3.50;92.00;;;;;;5032622;28;20721;-72
2020/12/01 03:42:49;;;;;;;28.57;13.97;;;-3.60;92.00;;;;;;5044002;28;20269;-71
2020/12/01 03:45:15;;;;;;;29.27;13.63;;;-3.70;91.70;;;;;;5046939;28;20236;-71
2020/12/01 03:47:41;;;;;;;33.07;13.20;;;-3.70;91.80;;;;;;5041518;28;20476;-71
2020/12/01 03:50:08;;;;;;;36.00;13.83;;;-3.80;91.70;;;;;;5043350;28;20517;-71
2020/12/01 03:52:35;;;;;;;43.67;13.83;;;-3.90;92.00;;;;;;5034729;28;20175;-72
2020/12/01 03:55:02;;;;;;;30.87;14.17;;;-3.90;92.00;;;;;;5037829;28;20209;-72
2020/12/01 03:57:28;;;;;;;27.40;12.63;;;-3.90;92.10;;;;;;5037539;28;20182;-72
2020/12/01 03:59:54;;;;;;;27.23;12.77;;;-3.90;92.20;;;;;;5044757;28;20192;-71
2020/12/01 04:02:19;;;;;;;27.27;12.00;;;-4.00;92.10;;;;;;5047698;28;20204;-71
2020/12/01 04:04:45;;;;;;;31.53;12.53;;;-4.00;92.10;;;;;;5049917;28;20199;-71
2020/12/01 04:07:11;;;;;;;28.97;13.60;;;-4.10;92.10;;;;;;5045452;28;20524;-71
2020/12/01 04:09:37;;;;;;;25.10;11.33;;;-4.10;92.00;;;;;;5030866;28;20305;-71
2020/12/01 04:12:02;;;;;;;25.07;11.57;;;-4.10;91.60;;;;;;5029742;28;20209;-71
2020/12/01 04:14:28;;;;;;;18.13;10.30;;;-4.20;91.60;;;;;;5035044;28;20178;-71
2020/12/01 04:16:53;;;;;;;32.30;13.10;;;-4.20;91.70;;;;;;5038244;28;20261;-71
2020/12/01 04:19:19;;;;;;;22.70;10.27;;;-4.30;91.60;;;;;;5050440;28;20517;-71
2020/12/01 04:21:45;;;;;;;27.37;13.20;;;-4.30;91.60;;;;;;5043747;28;20208;-71
2020/12/01 04:24:10;;;;;;;33.97;14.77;;;-4.40;91.50;;;;;;5039613;28;20222;-71
2020/12/01 04:26:36;;;;;;;38.70;14.20;;;-4.40;91.80;;;;;;5042212;28;20211;-71
2020/12/01 04:29:02;;;;;;;25.80;12.67;;;-4.40;91.80;;;;;;5042904;28;20209;-71
2020/12/01 04:31:27;;;;;;;28.73;12.37;;;-4.50;91.70;;;;;;5035952;28;20216;-70
2020/12/01 04:33:53;;;;;;;20.17;11.50;;;-4.50;91.70;;;;;;5041614;28;20197;-71
2020/12/01 04:36:19;;;;;;;25.03;12.50;;;-4.50;91.70;;;;;;5042389;28;20210;-71
2020/12/01 04:38:44;;;;;;;29.80;12.33;;;-4.60;91.70;;;;;;5047562;28;20224;-71
2020/12/01 04:41:11;;;;;;;27.40;13.00;;;-4.60;91.60;;;;;;5043475;28;20286;-72
2020/12/01 04:43:54;;;;;;;20.03;12.67;;;-4.60;91.40;;;;;;5030435;28;20194;-71
2020/12/01 04:46:25;;;;;;;21.37;12.17;;;-4.70;91.40;;;;;;5031914;28;20242;-71
2020/12/01 04:48:56;;;;;;;23.40;10.73;;;-4.70;91.40;;;;;;5042949;28;20228;-71
2020/12/01 04:51:37;;;;;;;29.53;13.23;;;-4.80;91.60;;;;;;5049482;28;20216;-71
2020/12/01 04:54:15;;;;;;;23.77;12.50;;;-4.80;91.60;;;;;;5037083;28;20566;-71
2020/12/01 04:57:00;;;;;;;32.80;13.50;;;-4.80;91.70;;;;;;5042372;28;20230;-71
2020/12/01 04:59:46;;;;;;;18.93;10.90;;;-4.90;91.70;;;;;;5038127;28;20701;-71
2020/12/01 05:02:42;;;;;;;28.10;12.53;;;-4.90;91.70;;;;;;5045433;28;20611;-71
2020/12/01 05:05:25;;;;;;;21.20;10.00;;;-4.90;91.80;;;;;;5046193;28;20570;-71
2020/12/01 05:08:28;;;;;;;30.43;11.10;;;-5.00;91.90;;;;;;5040992;28;20181;-71
2020/12/01 05:10:56;;;;;;;20.17;11.80;;;-5.00;92.00;;;;;;5046485;28;20195;-71
2020/12/01 05:13:26;;;;;;;23.50;9.70;;;-5.00;92.00;;;;;;5043894;28;20905;-72
2020/12/01 05:15:57;;;;;;;25.83;12.07;;;-5.00;92.10;;;;;;5049869;28;20532;-71
2020/12/01 05:18:33;;;;;;;25.80;9.53;;;-5.00;92.20;;;;;;5046867;28;20250;-71
2020/12/01 05:21:01;;;;;;;20.77;12.37;;;-5.00;92.50;;;;;;5047932;28;20534;-71
2020/12/01 05:23:38;;;;;;;23.57;10.70;;;-5.00;92.60;;;;;;5044658;28;20183;-71
2020/12/01 05:26:10;;;;;;;13.17;8.50;;;-5.00;92.70;;;;;;5034521;28;20283;-71
2020/12/01 05:29:02;;;;;;;28.93;11.93;;;-5.00;92.80;;;;;;5030846;28;20621;-71
2020/12/01 05:31:40;;;;;;;20.10;11.77;;;-4.90;92.70;;;;;;5029088;28;20213;-71
2020/12/01 05:34:15;;;;;;;23.10;10.37;;;-4.90;92.70;;;;;;5029748;28;20191;-71
2020/12/01 05:36:41;;;;;;;19.03;9.30;;;-4.90;92.60;;;;;;5043852;28;20388;-71
2020/12/01 05:39:17;;;;;;;21.10;11.20;;;-4.90;92.50;;;;;;5043593;28;20195;-71
2020/12/01 05:41:45;;;;;;;20.70;10.07;;;-4.90;92.20;;;;;;5048411;28;20538;-71
2020/12/01 05:44:22;;;;;;;17.60;10.30;;;-4.90;92.00;;;;;;5047654;28;20527;-71
2020/12/01 05:46:54;;;;;;;27.40;12.40;;;-5.00;91.70;;;;;;5043170;28;20210;-71
2020/12/01 05:49:38;;;;;;;21.50;10.70;;;-5.00;91.80;;;;;;5028281;28;20268;-71
2020/12/01 05:52:48;;;;;;;21.97;11.53;;;-5.00;91.80;;;;;;5038558;28;20171;-72
2020/12/01 05:55:13;;;;;;;17.33;9.43;;;-5.00;91.80;;;;;;5044150;28;20459;-71
2020/12/01 05:57:40;;;;;;;27.93;10.57;;;-5.00;91.90;;;;;;5027772;28;20189;-71
2020/12/01 06:00:18;;;;;;;22.80;12.50;;;-5.00;91.90;;;;;;5044779;28;20699;-70
2020/12/01 06:02:46;;;;;;;13.10;8.47;;;-5.00;92.00;;;;;;5045967;28;20280;-71
2020/12/01 06:05:18;;;;;;;17.40;10.53;;;-5.00;92.10;;;;;;5021231;28;20305;-71
2020/12/01 06:07:49;;;;;;;19.80;10.20;;;-5.00;92.20;;;;;;5046013;28;20503;-71
2020/12/01 06:10:32;;;;;;;27.07;12.43;;;-5.00;92.10;;;;;;5044355;28;20452;-72
2020/12/01 06:13:41;;;;;;;19.23;11.07;;;-4.90;92.20;;;;;;5045365;28;20329;-72
2020/12/01 06:16:20;;;;;;;17.20;8.60;;;-4.90;92.40;;;;;;4977345;28;20211;-71
2020/12/01 06:19:24;;;;;;;16.37;9.73;;;-4.80;92.80;;;;;;4949462;28;20202;-72
2020/12/01 06:22:19;;;;;;;17.43;9.57;;;-4.70;93.00;;;;;;4919049;29;20725;-72
2020/12/01 06:24:55;;;;;;;21.43;9.93;;;-4.50;93.00;;;;;;4912378;29;20199;-72
2020/12/01 06:27:42;;;;;;;13.17;9.47;;;-4.30;93.20;;;;;;4928075;29;20172;-72
2020/12/01 06:30:18;;;;;;;24.03;10.57;;;-4.10;93.50;;;;;;4924351;29;20234;-72
2020/12/01 06:32:58;;;;;;;20.57;11.97;;;-3.90;93.00;;;;;;4921363;29;20281;-72
2020/12/01 06:35:32;;;;;;;20.93;11.67;;;-3.60;92.70;;;;;;4925663;29;20211;-72
2020/12/01 06:38:12;;;;;;;18.73;9.80;;;-3.30;92.00;;;;;;4916827;29;20615;-72
2020/12/01 06:40:55;;;;;;;23.67;11.13;;;-3.00;92.30;;;;;;4925565;29;20235;-72
2020/12/01 06:43:35;;;;;;;23.57;13.20;;;-2.70;91.40;;;;;;4924979;29;20206;-72
2020/12/01 06:46:01;;;;;;;27.07;12.27;;;-2.30;91.90;;;;;;4926413;29;20617;-74
2020/12/01 06:48:44;;;;;;;25.93;13.73;;;-2.00;91.80;;;;;;4922097;29;20322;-72
2020/12/01 06:51:12;;;;;;;21.67;12.17;;;-1.70;90.40;;;;;;4956795;28;20220;-72
2020/12/01 06:53:40;;;;;;;20.57;10.50;;;-1.30;89.10;;;;;;4956840;28;20198;-72
2020/12/01 06:56:06;;;;;;;21.83;12.10;;;-1.20;85.00;;;;;;4949686;28;20214;-72
2020/12/01 06:58:43;;;;;;;24.97;13.07;;;-1.30;83.80;;;;;;5036594;28;20358;-77
2020/12/01 07:01:18;;;;;;;22.50;11.90;;;-1.20;84.00;;;;;;5041749;28;20199;-71
2020/12/01 07:03:45;;;;;;;22.33;12.03;;;-1.20;83.90;;;;;;5037115;28;20250;-73
2020/12/01 07:06:52;;;;;;;27.27;13.63;;;-1.00;84.20;;;;;;5037953;28;20214;-72
2020/12/01 07:09:27;;;;;;;34.13;13.97;;;-0.80;82.00;;;;;;5057760;28;20200;-72
2020/12/01 07:11:58;;;;;;;29.30;13.67;;;-0.80;83.00;;;;;;5035964;28;20210;-72
2020/12/01 07:14:38;;;;;;;32.30;16.03;;;-0.60;83.40;;;;;;5045488;28;20199;-72
2020/12/01 07:17:20;;;;;;;35.07;16.20;;;-0.50;82.80;;;;;;5037219;28;20228;-72
2020/12/01 07:19:58;;;;;;;33.70;16.03;;;-0.30;81.60;;;;;;5038774;28;20193;-72
2020/12/01 07:22:36;;;;;;;46.10;18.20;;;-0.40;80.00;;;;;;5042917;28;20187;-71
2020/12/01 07:25:22;;;;;;;40.93;18.00;;;-0.40;81.20;;;;;;5041912;28;20207;-72
2020/12/01 07:28:20;;;;;;;44.03;18.83;;;-0.40;81.10;;;;;;5045279;28;20400;-71
2020/12/01 07:31:02;;;;;;;43.33;19.07;;;-0.20;81.80;;;;;;5026055;28;20513;-70
2020/12/01 07:33:35;;;;;;;43.60;18.97;;;0.00;81.40;;;;;;5040989;28;20175;-70
2020/12/01 07:36:13;;;;;;;55.07;22.70;;;0.10;81.10;;;;;;5043669;28;20215;-70
2020/12/01 07:38:43;;;;;;;49.17;21.13;;;0.40;81.20;;;;;;5043935;28;20241;-69
2020/12/01 07:41:22;;;;;;;49.03;22.97;;;0.50;80.00;;;;;;5044717;28;20281;-70
2020/12/01 07:44:08;;;;;;;45.33;22.47;;;0.60;79.80;;;;;;5027681;28;20647;-70
2020/12/01 07:49:22;;;;;;;43.00;22.37;;;1.20;79.40;;;;;;5043252;28;20215;-66
2020/12/01 07:51:52;;;;;;;44.93;23.63;;;1.40;78.10;;;;;;5042512;28;20215;-67
2020/12/01 07:54:24;;;;;;;56.73;24.67;;;1.60;78.00;;;;;;5027416;28;20637;-67
2020/12/01 07:56:50;;;;;;;60.23;26.63;;;1.80;77.40;;;;;;5025601;28;20541;-67
2020/12/01 07:59:16;;;;;;;62.53;27.97;;;2.20;77.20;;;;;;5040167;28;20199;-66
2020/12/01 08:01:44;;;;;;;64.27;29.07;;;2.60;77.00;;;;;;5043574;28;20551;-66
2020/12/01 08:04:12;;;;;;;72.87;30.27;;;2.90;76.20;;;;;;5040150;28;20696;-67
2020/12/01 08:06:38;;;;;;;63.17;28.87;;;3.10;75.10;;;;;;5043123;28;20275;-67
2020/12/01 08:09:21;;;;;;;72.90;30.57;;;3.00;73.50;;;;;;5043978;28;20214;-66
2020/12/01 08:11:48;;;;;;;74.33;33.07;;;3.10;74.60;;;;;;5043562;28;20207;-66
2020/12/01 08:14:18;;;;;;;79.57;32.10;;;3.30;74.80;;;;;;5044738;28;20271;-66
2020/12/01 08:16:55;;;;;;;67.97;30.70;;;3.60;74.50;;;;;;5043555;28;20208;-67
2020/12/01 08:19:21;;;;;;;76.07;31.37;;;3.90;74.10;;;;;;5045519;28;20188;-66
2020/12/01 08:21:47;;;;;;;75.10;34.20;;;4.30;73.80;;;;;;5046355;28;20272;-67
2020/12/01 08:24:18;;;;;;;88.17;34.43;;;4.70;72.80;;;;;;5046613;28;20649;-67
2020/12/01 08:26:46;;;;;;;89.73;34.80;;;5.00;70.90;;;;;;5045364;28;20275;-66
2020/12/01 08:29:24;;;;;;;93.53;37.20;;;5.20;71.30;;;;;;5045887;28;20514;-66
2020/12/01 08:32:05;;;;;;;77.87;34.60;;;5.50;71.10;;;;;;5048356;28;20584;-66
2020/12/01 08:34:43;;;;;;;86.60;37.07;;;5.90;71.10;;;;;;5050609;28;20257;-66
2020/12/01 08:37:14;;;;;;;94.23;37.73;;;6.20;70.00;;;;;;5049360;28;20618;-68
2020/12/01 08:40:00;;;;;;;100.07;39.60;;;6.50;69.30;;;;;;5048561;28;20184;-68
2020/12/01 08:42:41;;;;;;;95.10;38.50;;;6.90;69.40;;;;;;5042729;28;20179;-67
2020/12/01 08:45:29;;;;;;;94.07;38.57;;;7.20;68.00;;;;;;5048544;28;20993;-65
2020/12/01 08:48:01;;;;;;;98.03;38.47;;;6.90;65.30;;;;;;5049613;28;20183;-68
2020/12/01 08:50:45;;;;;;;96.03;38.67;;;6.80;65.50;;;;;;5049108;28;20218;-66
2020/12/01 08:53:13;;;;;;;88.40;38.13;;;7.00;67.70;;;;;;5048164;28;20520;-65
2020/12/01 08:55:42;;;;;;;89.23;38.10;;;7.00;65.50;;;;;;5043313;28;20295;-67
2020/12/01 08:58:39;;;;;;;98.13;38.30;;;7.10;66.30;;;;;;5049168;28;20245;-66
2020/12/01 09:01:10;;;;;;;88.47;37.33;;;7.20;66.20;;;;;;5044332;28;20293;-65
2020/12/01 09:03:38;;;;;;;86.17;37.63;;;7.20;65.60;;;;;;5046311;28;20286;-65
2020/12/01 09:06:06;;;;;;;100.27;39.57;;;7.30;65.70;;;;;;5045837;28;20215;-66
2020/12/01 09:08:45;;;;;;;112.57;42.10;;;7.40;65.40;;;;;;5029905;28;20203;-65
2020/12/01 09:14:12;;;;;;;89.47;37.77;;;7.20;64.90;;;;;;5046143;28;20183;-65
2020/12/01 09:24:23;;;;;;;113.27;43.50;;;6.40;64.30;;;;;;5047021;28;20334;-66
2020/12/01 09:27:03;;;;;;;95.30;40.27;;;6.30;66.40;;;;;;5046901;28;20202;-66
2020/12/01 09:29:30;;;;;;;111.50;41.37;;;6.30;66.20;;;;;;5046326;28;20479;-66
2020/12/01 09:31:56;;;;;;;84.13;35.03;;;6.30;66.90;;;;;;5046542;28;20204;-66
2020/12/01 09:34:22;;;;;;;104.77;39.03;;;6.40;65.80;;;;;;5046268;28;20767;-66
2020/12/01 09:36:47;;;;;;;98.73;40.03;;;6.50;65.20;;;;;;5029511;28;20203;-66
2020/12/01 09:39:13;;;;;;;94.20;38.13;;;6.50;65.90;;;;;;5048850;28;20184;-66
2020/12/01 09:41:43;;;;;;;92.30;37.87;;;6.90;66.10;;;;;;5049016;28;20649;-66
2020/12/01 09:44:34;;;;;;;96.37;39.57;;;7.30;65.60;;;;;;5048022;28;20493;-67
2020/12/01 09:46:59;;;;;;;105.87;40.37;;;7.70;64.50;;;;;;5048227;28;20669;-67
2020/12/01 09:49:25;;;;;;;94.40;40.00;;;7.60;64.20;;;;;;5047697;28;20595;-66
2020/12/01 09:52:02;;;;;;;92.07;39.80;;;7.90;65.10;;;;;;5046941;28;20200;-67
2020/12/01 09:54:36;;;;;;;81.97;37.40;;;8.20;64.00;;;;;;5047766;28;20651;-66
2020/12/01 09:57:07;;;;;;;84.53;38.13;;;8.40;63.20;;;;;;5047486;28;20238;-67
2020/12/01 10:13:32;;;;;;;92.20;39.27;;;10.20;62.00;;;;;;5045750;28;20671;-66
2020/12/01 10:37:07;;;;;;;107.00;42.40;;;9.00;61.70;;;;;;5045382;28;20251;-67
2020/12/01 10:39:33;;;;;;;99.40;39.87;;;9.00;62.10;;;;;;5028633;28;20706;-67
2020/12/01 10:41:58;;;;;;;87.60;39.80;;;8.90;61.70;;;;;;5061983;28;20199;-66
2020/12/01 10:44:24;;;;;;;103.23;40.67;;;8.80;61.60;;;;;;5038003;28;20184;-66
2020/12/01 10:46:51;;;;;;;89.73;37.33;;;8.90;61.70;;;;;;5026594;28;20200;-67
2020/12/01 10:49:18;;;;;;;86.03;39.40;;;8.70;62.50;;;;;;5028000;28;20200;-67
2020/12/01 10:51:49;;;;;;;96.27;37.50;;;8.70;63.30;;;;;;5026392;28;20225;-67
2020/12/01 10:54:15;;;;;;;90.93;37.33;;;9.10;63.40;;;;;;5027481;28;20176;-67
2020/12/01 10:56:40;;;;;;;66.67;35.07;;;9.50;63.20;;;;;;5027805;28;20246;-67
2020/12/01 10:59:06;;;;;;;83.77;37.77;;;10.00;62.60;;;;;;5045524;28;20195;-67
2020/12/01 11:01:33;;;;;;;86.60;38.67;;;10.50;61.00;;;;;;5046498;28;20207;-67
2020/12/01 11:03:59;;;;;;;96.80;39.90;;;11.00;61.00;;;;;;5046968;28;20210;-67
2020/12/01 11:06:25;;;;;;;92.97;37.60;;;11.00;58.50;;;;;;5046281;28;20229;-67
2020/12/01 11:08:51;;;;;;;75.57;36.30;;;10.70;59.10;;;;;;5045437;28;20195;-67
2020/12/01 11:11:18;;;;;;;71.43;33.77;;;10.50;61.00;;;;;;5046316;28;20207;-67
2020/12/01 11:13:44;;;;;;;73.65;33.78;;;10.60;61.10;;;;;;5045871;28;20278;-67
2020/12/01 11:16:10;;;;;;;66.47;32.33;;;10.90;60.90;;;;;;5047356;28;20413;-67
2020/12/01 11:18:36;;;;;;;62.88;33.47;;;11.20;60.20;;;;;;5047579;28;20180;-68
2020/12/01 11:21:02;;;;;;;71.55;32.70;;;11.40;61.10;;;;;;5046271;28;20282;-67
2020/12/01 11:23:27;;;;;;;78.30;36.35;;;11.40;58.70;;;;;;5044676;28;20190;-67
2020/12/01 11:25:53;;;;;;;76.63;35.85;;;11.50;59.70;;;;;;5043263;28;20243;-67
2020/12/01 11:28:19;;;;;;;81.07;36.25;;;11.60;59.90;;;;;;5044550;28;20229;-68
2020/12/01 11:30:44;;;;;;;78.85;37.28;;;11.90;60.70;;;;;;5045172;28;20219;-68
2020/12/01 11:33:10;;;;;;;89.82;39.25;;;12.20;59.90;;;;;;5047508;28;20183;-68
2020/12/01 11:35:36;;;;;;;92.10;41.30;;;12.40;59.90;;;;;;5044401;28;20593;-68
2020/12/01 11:38:01;;;;;;;93.03;40.38;;;12.70;59.20;;;;;;5044850;28;20184;-68
2020/12/01 11:40:27;;;;;;;98.00;43.40;;;12.90;60.40;;;;;;5046265;28;20282;-68
2020/12/01 11:42:53;;;;;;;106.28;45.58;;;12.90;58.20;;;;;;5047096;28;20423;-67
2020/12/01 11:45:19;;;;;;;109.63;45.47;;;12.70;57.30;;;;;;5045790;28;20253;-67
2020/12/01 11:47:45;;;;;;;110.85;48.55;;;12.50;58.20;;;;;;5047254;28;20777;-68
2020/12/01 11:50:11;;;;;;;104.97;47.85;;;12.30;58.50;;;;;;5040566;28;20251;-67
2020/12/01 11:52:37;;;;;;;142.63;51.83;;;12.40;60.10;;;;;;5046576;28;20202;-67
2020/12/01 11:55:05;;;;;;;133.10;50.35;;;12.50;58.40;;;;;;5045403;28;20528;-67
2020/12/01 11:57:31;;;;;;;134.55;53.67;;;12.30;59.00;;;;;;5045229;28;20183;-67
2020/12/01 11:59:57;;;;;;;125.88;53.55;;;12.00;57.70;;;;;;5045408;28;20176;-67
2020/12/01 12:02:22;;;;;;;129.02;53.05;;;11.60;59.40;;;;;;5045723;28;20180;-67
2020/12/01 12:04:49;;;;;;;134.63;51.83;;;11.40;59.00;;;;;;5045482;28;20172;-67
2020/12/01 12:07:14;;;;;;;136.30;56.45;;;11.30;59.70;;;;;;5047264;28;20590;-67
2020/12/01 12:09:40;;;;;;;137.05;55.78;;;11.20;60.00;;;;;;5050150;28;20211;-67
2020/12/01 12:12:06;;;;;;;146.55;55.33;;;11.20;60.10;;;;;;5051026;28;20164;-67
2020/12/01 12:14:32;;;;;;;132.77;52.10;;;11.30;59.50;;;;;;5050077;28;20168;-67
2020/12/01 12:16:57;;;;;;;150.52;56.63;;;11.10;60.40;;;;;;5050648;28;20223;-67
2020/12/01 12:19:23;;;;;;;144.07;55.60;;;10.90;59.10;;;;;;5049511;28;20507;-67
2020/12/01 12:21:49;;;;;;;139.95;56.85;;;10.40;60.00;;;;;;5050645;28;20278;-67
2020/12/01 12:24:14;;;;;;;132.80;52.85;;;10.10;60.50;;;;;;5050631;28;20176;-67
2020/12/01 12:26:40;;;;;;;131.52;51.63;;;9.60;61.70;;;;;;5050596;28;20528;-67
2020/12/01 12:29:06;;;;;;;129.00;51.03;;;9.40;62.00;;;;;;5050495;28;20215;-67
2020/12/01 12:31:32;;;;;;;138.82;50.42;;;9.20;63.20;;;;;;5049289;28;20219;-67
2020/12/01 12:33:57;;;;;;;136.77;52.65;;;9.10;62.80;;;;;;5053307;28;20198;-67
2020/12/01 12:36:23;;;;;;;127.40;52.27;;;9.00;62.90;;;;;;5050260;28;20536;-67
2020/12/01 12:38:49;;;;;;;135.13;52.13;;;9.00;63.90;;;;;;5050158;28;20267;-68
2020/12/01 12:41:15;;;;;;;125.73;51.03;;;9.10;63.90;;;;;;5050367;28;20280;-67
2020/12/01 12:43:41;;;;;;;122.47;49.57;;;9.20;63.10;;;;;;5050509;28;20606;-67
2020/12/01 12:46:07;;;;;;;130.07;50.97;;;9.10;63.10;;;;;;5050138;28;20526;-67
2020/12/01 12:48:33;;;;;;;115.13;45.40;;;8.90;63.20;;;;;;5049247;28;20191;-67
2020/12/01 12:50:59;;;;;;;107.20;45.10;;;8.90;64.20;;;;;;5046990;28;20280;-67
2020/12/01 12:53:25;;;;;;;100.88;43.70;;;9.00;64.70;;;;;;5050261;28;20176;-67
2020/12/01 12:55:51;;;;;;;103.53;44.13;;;9.20;64.90;;;;;;5048656;28;20199;-68
2020/12/01 12:58:17;;;;;;;110.73;44.37;;;9.30;64.20;;;;;;5049848;28;20638;-66
2020/12/01 13:00:42;;;;;;;108.43;43.63;;;9.20;63.60;;;;;;5048556;28;20203;-66
2020/12/01 13:03:08;;;;;;;92.00;40.83;;;9.00;63.80;;;;;;5049782;28;20175;-67
2020/12/01 13:05:34;;;;;;;106.20;42.80;;;8.90;64.20;;;;;;5050113;28;20200;-67
2020/12/01 13:07:59;;;;;;;96.47;41.07;;;8.70;64.50;;;;;;5049887;28;20175;-67
2020/12/01 13:10:26;;;;;;;94.73;39.30;;;8.70;64.90;;;;;;5048354;28;20656;-66
2020/12/01 13:12:52;;;;;;;97.23;41.37;;;8.60;65.10;;;;;;5047874;28;20461;-67
2020/12/01 13:15:18;;;;;;;101.87;40.90;;;8.60;64.70;;;;;;5070878;28;20522;-68
2020/12/01 13:17:45;;;;;;;96.07;41.53;;;8.40;65.00;;;;;;5048838;28;20172;-68
2020/12/01 13:20:16;;;;;;;105.30;43.03;;;8.20;65.40;;;;;;5048795;28;20704;-68
2020/12/01 13:22:42;;;;;;;96.00;40.97;;;8.20;65.70;;;;;;5049176;28;20187;-68
2020/12/01 13:25:08;;;;;;;102.10;44.23;;;8.20;65.40;;;;;;5042153;28;20204;-68
2020/12/01 13:27:33;;;;;;;120.30;48.47;;;8.20;65.60;;;;;;5046191;28;20191;-75
2020/12/01 13:29:59;;;;;;;109.73;47.10;;;8.20;65.30;;;;;;5030117;28;20196;-68
2020/12/01 13:32:25;;;;;;;114.03;49.37;;;8.20;65.50;;;;;;5029170;28;20697;-68
2020/12/01 13:34:51;;;;;;;117.93;48.30;;;8.10;65.50;;;;;;5028067;28;20579;-68